Observation data for Childress on 05/24/2019      Previous  Date  Next       Current Mesonet Observations  Soil Data  Daily Summary Page  Observations in Plain Language
KCXS 240500Z 15012KT 25/19 A299 RMK A01 T02450190  RH  076%=      5-min Rain = 0
KCXS 240505Z 15012G17KT 24/19 A299 RMK A01 T02440190  RH  076%=      5-min Rain = 0
KCXS 240510Z 15013KT 24/19 A299 RMK A01 T02440190  RH  076%=      5-min Rain = 0
KCXS 240515Z 14012G17KT 24/19 A299 RMK A01 T02430190  RH  076%=      5-min Rain = 0
KCXS 240520Z 14011KT 24/19 A299 RMK A01 T02410190  RH  077%=      5-min Rain = 0
KCXS 240525Z 14011KT 24/19 A2989 RMK A01 T02400190  RH  078%=      5-min Rain = 0
KCXS 240530Z 14012KT 24/19 A2989 RMK A01 T02390190  RH  078%=      5-min Rain = 0
KCXS 240535Z 14011KT 24/19 A2989 RMK A01 T02390190  RH  078%=      5-min Rain = 0
KCXS 240540Z 14011KT 24/19 A2989 RMK A01 T02380191  RH  079%=      5-min Rain = 0
KCXS 240545Z 14010KT 24/19 A299 RMK A01 T02380191  RH  079%=      5-min Rain = 0
KCXS 240550Z 15009KT 24/19 A2989 RMK A01 T02380191  RH  079%=      5-min Rain = 0
KCXS 240555Z 15010KT 24/19 A299 RMK A01 T02370191  RH  080%=      5-min Rain = 0
KCXS 240600Z 15010KT 24/19 A299 RMK A01 T02370191  RH  080%=      5-min Rain = 0
KCXS 240605Z 15011KT 24/19 A299 RMK A01 T02370191  RH  080%=      5-min Rain = 0
KCXS 240610Z 15011KT 24/19 A299 RMK A01 T02360191  RH  080%=      5-min Rain = 0
KCXS 240615Z 15011KT 24/19 A299 RMK A01 T02360191  RH  080%=      5-min Rain = 0
KCXS 240620Z 15010KT 24/19 A299 RMK A01 T02350191  RH  081%=      5-min Rain = 0
KCXS 240625Z 15011KT 23/19 A299 RMK A01 T02340191  RH  081%=      5-min Rain = 0
KCXS 240630Z 15012KT 23/19 A299 RMK A01 T02330191  RH  082%=      5-min Rain = 0
KCXS 240635Z 15012KT 23/19 A299 RMK A01 T02310190  RH  082%=      5-min Rain = 0
KCXS 240640Z 15013KT 23/19 A299 RMK A01 T02300190  RH  083%=      5-min Rain = 0
KCXS 240645Z 15012G17KT 23/19 A299 RMK A01 T02300190  RH  083%=      5-min Rain = 0
KCXS 240650Z 15011KT 23/19 A2991 RMK A01 T02290190  RH  083%=      5-min Rain = 0
KCXS 240655Z 15010KT 23/19 A2991 RMK A01 T02280190  RH  083%=      5-min Rain = 0
KCXS 240700Z 15010KT 23/19 A2991 RMK A01 T02270190  RH  084%=      5-min Rain = 0
KCXS 240705Z 14010KT 23/19 A2991 RMK A01 T02270190  RH  084%=      5-min Rain = 0
KCXS 240710Z 14010KT 23/19 A2991 RMK A01 T02260190  RH  085%=      5-min Rain = 0
KCXS 240715Z 14010KT 23/19 A2991 RMK A01 T02250190  RH  085%=      5-min Rain = 0
KCXS 240720Z 14009KT 22/19 A2991 RMK A01 T02240190  RH  085%=      5-min Rain = 0
KCXS 240725Z 15008KT 22/19 A2992 RMK A01 T02240190  RH  086%=      5-min Rain = 0
KCXS 240730Z 16007KT 23/19 A2992 RMK A01 T02250190  RH  086%=      5-min Rain = 0
KCXS 240735Z 22006KT 23/19 A2993 RMK A01 T02250191  RH  085%=      5-min Rain = 0
KCXS 240740Z 27007KT 22/18 A2993 RMK A01 T02220178  RH  080%=      5-min Rain = 0
KCXS 240745Z 27007KT 22/17 A2993 RMK A01 T02170167  RH  077%=      5-min Rain = 0
KCXS 240750Z 28006KT 21/17 A2993 RMK A01 T02130170  RH  080%=      5-min Rain = 0
KCXS 240755Z 23008G18KT 21/18 A2993 RMK A01 T02130177  RH  084%=      5-min Rain = 0
KCXS 240800Z 29007KT 21/17 A2994 RMK A01 T02120174  RH  083%=      5-min Rain = 0
KCXS 240805Z 28006G11KT 21/17 A2994 RMK A01 T02080173  RH  084%=      5-min Rain = 0
KCXS 240810Z 30007KT 21/17 A2994 RMK A01 T02050173  RH  086%=      5-min Rain = 0
KCXS 240815Z 31006KT 20/17 A2994 RMK A01 T02030172  RH  087%=      5-min Rain = 0
KCXS 240820Z 31006KT 20/17 A2994 RMK A01 T02010173  RH  088%=      5-min Rain = 0
KCXS 240825Z 34005KT 20/17 A2994 RMK A01 T01990174  RH  090%=      5-min Rain = 0.01
KCXS 240830Z 36005KT 20/18 A2993 RMK A01 T01970175  RH  092%=      5-min Rain = 0
KCXS 240835Z 01005KT 20/18 A2993 RMK A01 T01950175  RH  093%=      5-min Rain = 0
KCXS 240840Z 00006KT 19/18 A2993 RMK A01 T01940175  RH  093%=      5-min Rain = 0
KCXS 240845Z 00006KT 19/18 A2993 RMK A01 T01930175  RH  094%=      5-min Rain = 0
KCXS 240850Z 02005KT 19/17 A2993 RMK A01 T01910174  RH  095%=      5-min Rain = 0
KCXS 240855Z 02005KT 19/18 A2993 RMK A01 T01910175  RH  095%=      5-min Rain = 0
KCXS 240900Z 01006KT 19/18 A2993 RMK A01 T01910175  RH  095%=      5-min Rain = 0
KCXS 240905Z 02006KT 19/18 A2993 RMK A01 T01920176  RH  095%=      5-min Rain = 0
KCXS 240910Z 03007KT 19/18 A2992 RMK A01 T01920176  RH  095%=      5-min Rain = 0
KCXS 240915Z 04008KT 19/18 A2992 RMK A01 T01920175  RH  095%=      5-min Rain = 0
KCXS 240920Z 04008KT 19/18 A2992 RMK A01 T01920175  RH  094%=      5-min Rain = 0
KCXS 240925Z 05007KT 19/17 A2992 RMK A01 T01910174  RH  095%=      5-min Rain = 0
KCXS 240930Z 04008KT 19/17 A2991 RMK A01 T01910174  RH  095%=      5-min Rain = 0
KCXS 240935Z 05008KT 19/17 A2991 RMK A01 T01910173  RH  094%=      5-min Rain = 0
KCXS 240940Z 05007KT 19/17 A2992 RMK A01 T01900171  RH  093%=      5-min Rain = 0
KCXS 240945Z 05007KT 19/17 A2992 RMK A01 T01900170  RH  093%=      5-min Rain = 0
KCXS 240950Z 05006KT 19/17 A2993 RMK A01 T01900169  RH  092%=      5-min Rain = 0
KCXS 240955Z 05006KT 19/17 A2993 RMK A01 T01900168  RH  091%=      5-min Rain = 0
KCXS 241000Z 06006KT 19/17 A2993 RMK A01 T01900167  RH  091%=      5-min Rain = 0
KCXS 241005Z 07006KT 19/17 A2993 RMK A01 T01900167  RH  091%=      5-min Rain = 0
KCXS 241010Z 08008KT 19/17 A2992 RMK A01 T01880168  RH  092%=      5-min Rain = 0
KCXS 241015Z 09007KT 19/17 A2992 RMK A01 T01870168  RH  093%=      5-min Rain = 0
KCXS 241020Z 08006KT 19/17 A2993 RMK A01 T01870168  RH  093%=      5-min Rain = 0
KCXS 241025Z 09005KT 19/17 A2993 RMK A01 T01870168  RH  093%=      5-min Rain = 0
KCXS 241030Z 09007KT 19/17 A2993 RMK A01 T01870168  RH  093%=      5-min Rain = 0
KCXS 241035Z 09007KT 19/17 A2993 RMK A01 T01880169  RH  093%=      5-min Rain = 0
KCXS 241040Z 09007KT 19/17 A2993 RMK A01 T01900171  RH  094%=      5-min Rain = 0
KCXS 241045Z 09007KT 19/17 A2993 RMK A01 T01910173  RH  094%=      5-min Rain = 0
KCXS 241050Z 09006KT 19/18 A2993 RMK A01 T01920175  RH  094%=      5-min Rain = 0
KCXS 241055Z 10006KT 20/18 A2993 RMK A01 T01950178  RH  095%=      5-min Rain = 0
KCXS 241100Z 11007KT 20/18 A2993 RMK A01 T01960179  RH  095%=      5-min Rain = 0
KCXS 241105Z 12007KT 20/18 A2993 RMK A01 T01970181  RH  095%=      5-min Rain = 0
KCXS 241110Z 12008KT 20/18 A2993 RMK A01 T01980183  RH  096%=      5-min Rain = 0
KCXS 241115Z 12006KT 20/18 A2993 RMK A01 T02000184  RH  096%=      5-min Rain = 0
KCXS 241120Z 12004KT 20/18 A2993 RMK A01 T02000184  RH  096%=      5-min Rain = 0
KCXS 241125Z 12003KT 20/18 A2994 RMK A01 T02000184  RH  096%=      5-min Rain = 0
KCXS 241130Z 11003KT 20/19 A2994 RMK A01 T02010185  RH  096%=      5-min Rain = 0
KCXS 241135Z 10001KT 20/19 A2994 RMK A01 T02020186  RH  096%=      5-min Rain = 0
KCXS 241140Z 30002KT 20/18 A2994 RMK A01 T02000183  RH  095%=      5-min Rain = 0
KCXS 241145Z 35001KT 20/18 A2994 RMK A01 T01970180  RH  095%=      5-min Rain = 0
KCXS 241150Z 13001KT 20/18 A2994 RMK A01 T01970182  RH  096%=      5-min Rain = 0
KCXS 241155Z 12004KT 20/18 A2993 RMK A01 T01990184  RH  096%=      5-min Rain = 0
KCXS 241200Z 13005KT 20/19 A2993 RMK A01 T02000186  RH  097%=      5-min Rain = 0
KCXS 241205Z 14006KT 20/19 A2993 RMK A01 T02020188  RH  097%=      5-min Rain = 0
KCXS 241210Z 14007KT 20/19 A2993 RMK A01 T02040191  RH  097%=      5-min Rain = 0
KCXS 241215Z 14007KT 21/19 A2994 RMK A01 T02050192  RH  097%=      5-min Rain = 0
KCXS 241220Z 14007KT 21/19 A2994 RMK A01 T02060193  RH  098%=      5-min Rain = 0
KCXS 241225Z 15007KT 21/20 A2994 RMK A01 T02070195  RH  098%=      5-min Rain = 0
KCXS 241230Z 15008KT 21/20 A2994 RMK A01 T02090197  RH  098%=      5-min Rain = 0
KCXS 241235Z 15009KT 21/20 A2994 RMK A01 T02100197  RH  098%=      5-min Rain = 0
KCXS 241240Z 15008KT 21/20 A2994 RMK A01 T02100198  RH  098%=      5-min Rain = 0
KCXS 241245Z 15010KT 21/20 A2994 RMK A01 T02110199  RH  098%=      5-min Rain = 0
KCXS 241250Z 15011KT 21/20 A2994 RMK A01 T02120199  RH  098%=      5-min Rain = 0
KCXS 241255Z 16011KT 21/20 A2994 RMK A01 T02130199  RH  097%=      5-min Rain = 0
KCXS 241300Z 16010KT 21/20 A2994 RMK A01 T02130199  RH  097%=      5-min Rain = 0
KCXS 241305Z 15010KT 21/20 A2994 RMK A01 T02140199  RH  097%=      5-min Rain = 0
KCXS 241310Z 15009KT 22/20 A2994 RMK A01 T02150199  RH  096%=      5-min Rain = 0
KCXS 241315Z 15010KT 22/20 A2994 RMK A01 T02150200  RH  096%=      5-min Rain = 0
KCXS 241320Z 15008KT 22/20 A2994 RMK A01 T02150200  RH  096%=      5-min Rain = 0
KCXS 241325Z 15010KT 22/20 A2994 RMK A01 T02160200  RH  096%=      5-min Rain = 0
KCXS 241330Z 15010KT 22/20 A2994 RMK A01 T02160201  RH  096%=      5-min Rain = 0
KCXS 241335Z 15010KT 22/20 A2994 RMK A01 T02180202  RH  096%=      5-min Rain = 0
KCXS 241340Z 16010KT 22/20 A2994 RMK A01 T02190202  RH  096%=      5-min Rain = 0
KCXS 241345Z 15011KT 22/20 A2994 RMK A01 T02200202  RH  095%=      5-min Rain = 0
KCXS 241350Z 15010KT 22/20 A2994 RMK A01 T02220203  RH  095%=      5-min Rain = 0
KCXS 241355Z 15011KT 22/20 A2994 RMK A01 T02230203  RH  094%=      5-min Rain = 0
KCXS 241400Z 16012KT 22/20 A2994 RMK A01 T02240203  RH  093%=      5-min Rain = 0
KCXS 241405Z 16013KT 22/20 A2994 RMK A01 T02240202  RH  093%=      5-min Rain = 0
KCXS 241410Z 16013KT 22/20 A2994 RMK A01 T02240202  RH  093%=      5-min Rain = 0
KCXS 241415Z 16013G18KT 23/20 A2994 RMK A01 T02250203  RH  092%=      5-min Rain = 0
KCXS 241420Z 16012KT 23/20 A2994 RMK A01 T02270204  RH  092%=      5-min Rain = 0
KCXS 241425Z 16013KT 23/20 A2994 RMK A01 T02290204  RH  091%=      5-min Rain = 0
KCXS 241430Z 16014KT 23/20 A2994 RMK A01 T02290203  RH  090%=      5-min Rain = 0
KCXS 241435Z 16013G18KT 23/20 A2994 RMK A01 T02290203  RH  091%=      5-min Rain = 0
KCXS 241440Z 16013KT 23/20 A2994 RMK A01 T02320204  RH  090%=      5-min Rain = 0
KCXS 241445Z 16014KT 23/20 A2994 RMK A01 T02310203  RH  090%=      5-min Rain = 0
KCXS 241450Z 16013G18KT 23/20 A2994 RMK A01 T02300203  RH  090%=      5-min Rain = 0
KCXS 241455Z 15013KT 23/20 A2994 RMK A01 T02290203  RH  090%=      5-min Rain = 0
KCXS 241500Z 16015G20KT 23/20 A2994 RMK A01 T02300204  RH  090%=      5-min Rain = 0
KCXS 241505Z 16015KT 23/21 A2994 RMK A01 T02340205  RH  089%=      5-min Rain = 0
KCXS 241510Z 15015KT 24/21 A2994 RMK A01 T02370205  RH  087%=      5-min Rain = 0
KCXS 241515Z 16016KT 24/21 A2994 RMK A01 T02390205  RH  086%=      5-min Rain = 0
KCXS 241520Z 16015KT 24/21 A2994 RMK A01 T02420206  RH  085%=      5-min Rain = 0
KCXS 241525Z 16014KT 24/21 A2994 RMK A01 T02440206  RH  085%=      5-min Rain = 0
KCXS 241530Z 16015KT 24/21 A2994 RMK A01 T02420206  RH  085%=      5-min Rain = 0
KCXS 241535Z 16015G20KT 24/21 A2994 RMK A01 T02420206  RH  085%=      5-min Rain = 0
KCXS 241540Z 16015KT 25/21 A2994 RMK A01 T02500208  RH  082%=      5-min Rain = 0
KCXS 241545Z 16015KT 25/21 A2994 RMK A01 T02540206  RH  080%=      5-min Rain = 0
KCXS 241550Z 16016G21KT 25/21 A2994 RMK A01 T02540205  RH  079%=      5-min Rain = 0
KCXS 241555Z 16013G18KT 26/21 A2994 RMK A01 T02580207  RH  078%=      5-min Rain = 0
KCXS 241600Z 17014G20KT 26/20 A2994 RMK A01 T02560204  RH  077%=      5-min Rain = 0
KCXS 241605Z 17015G21KT 26/20 A2994 RMK A01 T02550203  RH  078%=      5-min Rain = 0
KCXS 241610Z 17015KT 25/20 A2994 RMK A01 T02540204  RH  078%=      5-min Rain = 0
KCXS 241615Z 17014G23KT 26/20 A2994 RMK A01 T02590204  RH  076%=      5-min Rain = 0
KCXS 241620Z 17015G20KT 26/20 A2994 RMK A01 T02600204  RH  076%=      5-min Rain = 0
KCXS 241625Z 17018G23KT 26/20 A2993 RMK A01 T02610202  RH  074%=      5-min Rain = 0
KCXS 241630Z 17018G23KT 26/20 A2994 RMK A01 T02600201  RH  074%=      5-min Rain = 0
KCXS 241635Z 18017G22KT 26/20 A2994 RMK A01 T02590201  RH  075%=      5-min Rain = 0
KCXS 241640Z 17016KT 26/20 A2994 RMK A01 T02580201  RH  075%=      5-min Rain = 0
KCXS 241645Z 17014G20KT 26/20 A2994 RMK A01 T02560201  RH  076%=      5-min Rain = 0
KCXS 241650Z 17016KT 26/20 A2994 RMK A01 T02560201  RH  076%=      5-min Rain = 0
KCXS 241655Z 17015G21KT 26/20 A2994 RMK A01 T02570201  RH  075%=      5-min Rain = 0
KCXS 241700Z 17015G21KT 26/20 A2994 RMK A01 T02560201  RH  076%=      5-min Rain = 0
KCXS 241705Z 17013G20KT 26/20 A2994 RMK A01 T02550201  RH  077%=      5-min Rain = 0
KCXS 241710Z 17014G19KT 25/20 A2994 RMK A01 T02540201  RH  077%=      5-min Rain = 0
KCXS 241715Z 17013KT 25/20 A2994 RMK A01 T02530201  RH  077%=      5-min Rain = 0
KCXS 241720Z 17011KT 25/20 A2994 RMK A01 T02530202  RH  078%=      5-min Rain = 0
KCXS 241725Z 17012KT 25/20 A2994 RMK A01 T02540202  RH  077%=      5-min Rain = 0
KCXS 241730Z 17013G19KT 26/20 A2994 RMK A01 T02560201  RH  076%=      5-min Rain = 0
KCXS 241735Z 17015G21KT 26/20 A2994 RMK A01 T02550200  RH  076%=      5-min Rain = 0
KCXS 241740Z 17016G21KT 26/20 A2994 RMK A01 T02580201  RH  075%=      5-min Rain = 0
KCXS 241745Z 17015KT 26/20 A2994 RMK A01 T02610202  RH  074%=      5-min Rain = 0
KCXS 241750Z 17015KT 26/20 A2994 RMK A01 T02600202  RH  075%=      5-min Rain = 0
KCXS 241755Z 17015G21KT 26/20 A2993 RMK A01 T02580201  RH  075%=      5-min Rain = 0
KCXS 241800Z 18014G20KT 26/20 A2994 RMK A01 T02560201  RH  076%=      5-min Rain = 0
KCXS 241805Z 17014G21KT 26/20 A2993 RMK A01 T02570201  RH  076%=      5-min Rain = 0
KCXS 241810Z 17019G24KT 26/20 A2993 RMK A01 T02580200  RH  074%=      5-min Rain = 0
KCXS 241815Z 17017G22KT 26/20 A2993 RMK A01 T02610201  RH  073%=      5-min Rain = 0
KCXS 241820Z 17017G23KT 27/20 A2993 RMK A01 T02660202  RH  072%=      5-min Rain = 0
KCXS 241825Z 17018G23KT 27/20 A2993 RMK A01 T02660201  RH  072%=      5-min Rain = 0
KCXS 241830Z 17017G23KT 27/20 A2993 RMK A01 T02650201  RH  072%=      5-min Rain = 0
KCXS 241835Z 18017G22KT 27/20 A2993 RMK A01 T02690202  RH  071%=      5-min Rain = 0
KCXS 241840Z 17016G22KT 27/20 A2992 RMK A01 T02710204  RH  071%=      5-min Rain = 0
KCXS 241845Z 17016G23KT 27/20 A2992 RMK A01 T02730204  RH  070%=      5-min Rain = 0
KCXS 241850Z 17018G25KT 27/20 A2992 RMK A01 T02740203  RH  069%=      5-min Rain = 0
KCXS 241855Z 17016G22KT 28/20 A2992 RMK A01 T02750203  RH  069%=      5-min Rain = 0
KCXS 241900Z 17015G21KT 27/20 A2992 RMK A01 T02710203  RH  071%=      5-min Rain = 0
KCXS 241905Z 17016G23KT 27/20 A2992 RMK A01 T02710203  RH  070%=      5-min Rain = 0
KCXS 241910Z 17018KT 27/20 A2991 RMK A01 T02670201  RH  071%=      5-min Rain = 0
KCXS 241915Z 17016G21KT 27/20 A2991 RMK A01 T02660201  RH  072%=      5-min Rain = 0
KCXS 241920Z 17016G22KT 27/20 A2991 RMK A01 T02670202  RH  072%=      5-min Rain = 0
KCXS 241925Z 17017G23KT 27/20 A2991 RMK A01 T02670201  RH  071%=      5-min Rain = 0
KCXS 241930Z 17014G20KT 27/20 A2992 RMK A01 T02670203  RH  072%=      5-min Rain = 0
KCXS 241935Z 17017G23KT 27/20 A2992 RMK A01 T02710202  RH  070%=      5-min Rain = 0
KCXS 241940Z 17018G23KT 27/20 A2991 RMK A01 T02700201  RH  070%=      5-min Rain = 0
KCXS 241945Z 17017G22KT 27/20 A299 RMK A01 T02690202  RH  071%=      5-min Rain = 0
KCXS 241950Z 17016G22KT 27/20 A299 RMK A01 T02740204  RH  070%=      5-min Rain = 0
KCXS 241955Z 17015KT 27/21 A2991 RMK A01 T02740205  RH  070%=      5-min Rain = 0
KCXS 242000Z 16017KT 28/21 A299 RMK A01 T02750205  RH  070%=      5-min Rain = 0
KCXS 242005Z 16015G20KT 27/20 A299 RMK A01 T02710204  RH  071%=      5-min Rain = 0
KCXS 242010Z 15015KT 27/20 A299 RMK A01 T02700204  RH  071%=      5-min Rain = 0
KCXS 242015Z 17015G23KT 27/20 A2991 RMK A01 T02690203  RH  071%=      5-min Rain = 0
KCXS 242020Z 17017G23KT 27/20 A2991 RMK A01 T02650201  RH  072%=      5-min Rain = 0
KCXS 242025Z 16014KT 27/20 A2991 RMK A01 T02650201  RH  072%=      5-min Rain = 0
KCXS 242030Z 16014G19KT 26/20 A2991 RMK A01 T02640202  RH  073%=      5-min Rain = 0
KCXS 242035Z 16015KT 26/20 A299 RMK A01 T02620201  RH  073%=      5-min Rain = 0
KCXS 242040Z 16013KT 26/20 A299 RMK A01 T02620202  RH  074%=      5-min Rain = 0
KCXS 242045Z 16013G18KT 26/20 A2989 RMK A01 T02610202  RH  074%=      5-min Rain = 0
KCXS 242050Z 16012KT 26/20 A299 RMK A01 T02610203  RH  075%=      5-min Rain = 0
KCXS 242055Z 17013KT 26/20 A2991 RMK A01 T02600202  RH  074%=      5-min Rain = 0
KCXS 242100Z 16012KT 26/20 A2991 RMK A01 T02590202  RH  075%=      5-min Rain = 0
KCXS 242105Z 16012KT 26/20 A2989 RMK A01 T02570202  RH  076%=      5-min Rain = 0
KCXS 242110Z 16014KT 26/20 A2989 RMK A01 T02550201  RH  076%=      5-min Rain = 0
KCXS 242115Z 16012KT 26/20 A2989 RMK A01 T02550201  RH  076%=      5-min Rain = 0
KCXS 242120Z 16012KT 25/20 A2989 RMK A01 T02530201  RH  077%=      5-min Rain = 0
KCXS 242125Z 16010KT 25/20 A2991 RMK A01 T02530201  RH  077%=      5-min Rain = 0
KCXS 242130Z 16009KT 25/20 A299 RMK A01 T02520201  RH  078%=      5-min Rain = 0
KCXS 242135Z 16007KT 25/20 A299 RMK A01 T02520201  RH  078%=      5-min Rain = 0
KCXS 242140Z 15005KT 25/20 A2988 RMK A01 T02520201  RH  078%=      5-min Rain = 0
KCXS 242145Z 17006KT 25/20 A299 RMK A01 T02520200  RH  078%=      5-min Rain = 0
KCXS 242150Z 18007KT 25/20 A2991 RMK A01 T02510200  RH  078%=      5-min Rain = 0
KCXS 242155Z 17004KT 25/20 A2989 RMK A01 T02510200  RH  078%=      5-min Rain = 0
KCXS 242200Z 18001KT 25/20 A2989 RMK A01 T02500200  RH  078%=      5-min Rain = 0
KCXS 242205Z 26000KT 25/20 A299 RMK A01 T02500201  RH  079%=      5-min Rain = 0
KCXS 242210Z 25005KT 25/20 A299 RMK A01 T02460204  RH  082%=      5-min Rain = 0.01
KCXS 242215Z 27014G30KT 24/21 A2991 RMK A01 T02380205  RH  087%=      5-min Rain = 0.06
KCXS 242220Z 24010G24KT 22/19 A2993 RMK A01 T02220190  RH  087%=      5-min Rain = 0.22
KCXS 242225Z 17013G18KT 20/18 A2992 RMK A01 T02040175  RH  088%=      5-min Rain = 0.12
KCXS 242230Z 12015KT 19/17 A2989 RMK A01 T01940173  RH  092%=      5-min Rain = 0.1
KCXS 242235Z 11016KT 19/17 A2988 RMK A01 T01890173  RH  095%=      5-min Rain = 0.03
KCXS 242240Z 11013KT 19/17 A2988 RMK A01 T01870170  RH  094%=      5-min Rain = 0
KCXS 242245Z 09013G18KT 18/16 A2987 RMK A01 T01830163  RH  092%=      5-min Rain = 0
KCXS 242250Z 12010KT 18/16 A2987 RMK A01 T01780157  RH  092%=      5-min Rain = 0
KCXS 242255Z 11007KT 17/15 A2986 RMK A01 T01730153  RH  092%=      5-min Rain = 0
KCXS 242300Z 07006KT 17/15 A2985 RMK A01 T01720149  RH  090%=      5-min Rain = 0.01
KCXS 242305Z 12005KT 18/15 A2984 RMK A01 T01770146  RH  086%=      5-min Rain = 0.01
KCXS 242310Z 13009KT 18/15 A2985 RMK A01 T01750153  RH  091%=      5-min Rain = 0
KCXS 242315Z 13011KT 17/15 A2985 RMK A01 T01720153  RH  093%=      5-min Rain = 0
KCXS 242320Z 12012KT 17/15 A2983 RMK A01 T01710153  RH  093%=      5-min Rain = 0
KCXS 242325Z 14009KT 17/15 A2984 RMK A01 T01700152  RH  093%=      5-min Rain = 0
KCXS 242330Z 16011KT 17/15 A2985 RMK A01 T01710152  RH  093%=      5-min Rain = 0
KCXS 242335Z 15012KT 17/15 A2984 RMK A01 T01720152  RH  092%=      5-min Rain = 0
KCXS 242340Z 16013KT 17/15 A2986 RMK A01 T01730152  RH  091%=      5-min Rain = 0.01
KCXS 242345Z 15012KT 17/15 A2987 RMK A01 T01740153  RH  091%=      5-min Rain = 0
KCXS 242350Z 14012KT 17/15 A2988 RMK A01 T01730153  RH  092%=      5-min Rain = 0
KCXS 242355Z 13016G21KT 17/15 A2986 RMK A01 T01700153  RH  094%=      5-min Rain = 0.02
KCXS 250000Z 14019KT 17/15 A2986 RMK A01 T01680153  RH  095%=      5-min Rain = 0.01
KCXS 250005Z 14017KT 17/15 A2985 RMK A01 T01670153  RH  096%=      5-min Rain = 0.01
KCXS 250010Z 13015KT 17/15 A2985 RMK A01 T01680154  RH  096%=      5-min Rain = 0
KCXS 250015Z 14016KT 17/15 A2987 RMK A01 T01680154  RH  096%=      5-min Rain = 0.02
KCXS 250020Z 13017G22KT 17/16 A2987 RMK A01 T01680155  RH  096%=      5-min Rain = 0.01
KCXS 250025Z 14019G26KT 17/16 A2987 RMK A01 T01690156  RH  097%=      5-min Rain = 0.01
KCXS 250030Z 14015G20KT 17/16 A2986 RMK A01 T01700157  RH  097%=      5-min Rain = 0.01
KCXS 250035Z 15019G25KT 17/16 A2987 RMK A01 T01700158  RH  097%=      5-min Rain = 0.01
KCXS 250040Z 15017G23KT 17/16 A2988 RMK A01 T01710159  RH  098%=      5-min Rain = 0.01
KCXS 250045Z 16016G21KT 17/16 A2989 RMK A01 T01720161  RH  098%=      5-min Rain = 0.02
KCXS 250050Z 13017G22KT 17/16 A2988 RMK A01 T01730162  RH  098%=      5-min Rain = 0.01
KCXS 250055Z 12017G22KT 17/16 A2986 RMK A01 T01730162  RH  098%=      5-min Rain = 0.01
KCXS 250100Z 13015KT 17/16 A2988 RMK A01 T01740163  RH  098%=      5-min Rain = 0.02
KCXS 250105Z 14011G16KT 17/16 A2989 RMK A01 T01730163  RH  098%=      5-min Rain = 0.01
KCXS 250110Z 15013G20KT 17/16 A2991 RMK A01 T01740164  RH  099%=      5-min Rain = 0.03
KCXS 250115Z 16018G24KT 18/17 A2991 RMK A01 T01750166  RH  099%=      5-min Rain = 0.01
KCXS 250120Z 16018G24KT 18/17 A2988 RMK A01 T01760167  RH  099%=      5-min Rain = 0.03
KCXS 250125Z 17020G30KT 18/17 A2989 RMK A01 T01780169  RH  099%=      5-min Rain = 0.04
KCXS 250130Z 18021G29KT 18/17 A2989 RMK A01 T01820169  RH  097%=      5-min Rain = 0.04
KCXS 250135Z 18022G28KT 19/17 A2989 RMK A01 T01850167  RH  094%=      5-min Rain = 0.06
KCXS 250140Z 17022G29KT 18/16 A2988 RMK A01 T01820162  RH  093%=      5-min Rain = 0.06
KCXS 250145Z 17022G29KT 18/16 A299 RMK A01 T01770158  RH  093%=      5-min Rain = 0.02
KCXS 250150Z 18013G21KT 18/15 A299 RMK A01 T01750154  RH  092%=      5-min Rain = 0.01
KCXS 250155Z 15017G26KT 17/16 A299 RMK A01 T01740156  RH  093%=      5-min Rain = 0.05
KCXS 250200Z 16018G25KT 17/16 A2992 RMK A01 T01710156  RH  095%=      5-min Rain = 0.02
KCXS 250205Z 16018G23KT 17/16 A2992 RMK A01 T01710157  RH  096%=      5-min Rain = 0.01
KCXS 250210Z 17019G27KT 17/16 A299 RMK A01 T01730158  RH  095%=      5-min Rain = 0.04
KCXS 250215Z 18021G27KT 18/16 A2989 RMK A01 T01750160  RH  095%=      5-min Rain = 0.01
KCXS 250220Z 17018G24KT 17/16 A2989 RMK A01 T01730156  RH  094%=      5-min Rain = 0.01
KCXS 250225Z 18019G24KT 17/15 A2991 RMK A01 T01700153  RH  094%=      5-min Rain = 0.03
KCXS 250230Z 17019G24KT 17/15 A2993 RMK A01 T01660151  RH  095%=      5-min Rain = 0
KCXS 250235Z 17021G26KT 16/15 A2993 RMK A01 T01640150  RH  096%=      5-min Rain = 0.05
KCXS 250240Z 17017G23KT 16/15 A2992 RMK A01 T01630151  RH  097%=      5-min Rain = 0.03
KCXS 250245Z 17015G20KT 16/15 A2993 RMK A01 T01630151  RH  097%=      5-min Rain = 0.01
KCXS 250250Z 16012G17KT 17/15 A2993 RMK A01 T01660153  RH  097%=      5-min Rain = 0
KCXS 250255Z 17011KT 17/15 A2993 RMK A01 T01660153  RH  097%=      5-min Rain = 0.02
KCXS 250300Z 17010KT 17/16 A2993 RMK A01 T01660155  RH  097%=      5-min Rain = 0.01
KCXS 250305Z 17007G12KT 17/16 A2992 RMK A01 T01660156  RH  098%=      5-min Rain = 0
KCXS 250310Z 20009G14KT 17/16 A2994 RMK A01 T01680157  RH  098%=      5-min Rain = 0
KCXS 250315Z 22017G29KT 17/16 A2998 RMK A01 T01710162  RH  099%=      5-min Rain = 0.13
KCXS 250320Z 23011G20KT 17/16 A2997 RMK A01 T01730162  RH  097%=      5-min Rain = 0.27
KCXS 250325Z 14011KT 17/16 A2995 RMK A01 T01710158  RH  097%=      5-min Rain = 0.13
KCXS 250330Z 14015KT 17/16 A2994 RMK A01 T01690158  RH  098%=      5-min Rain = 0.15
KCXS 250335Z 15014KT 17/16 A2993 RMK A01 T01680157  RH  098%=      5-min Rain = 0.01
KCXS 250340Z 17015KT 17/16 A2993 RMK A01 T01660155  RH  098%=      5-min Rain = 0.03
KCXS 250345Z 17013G18KT 17/16 A2993 RMK A01 T01660155  RH  097%=      5-min Rain = 0.01
KCXS 250350Z 16011KT 17/15 A2992 RMK A01 T01660154  RH  097%=      5-min Rain = 0
KCXS 250355Z 15009KT 17/15 A2992 RMK A01 T01650154  RH  097%=      5-min Rain = 0
KCXS 250400Z 15011KT 17/15 A2992 RMK A01 T01650154  RH  098%=      5-min Rain = 0
KCXS 250405Z 15009KT 17/16 A2992 RMK A01 T01650155  RH  098%=      5-min Rain = 0
KCXS 250410Z 16009KT 17/16 A2992 RMK A01 T01650155  RH  098%=      5-min Rain = 0
KCXS 250415Z 16009KT 17/16 A2993 RMK A01 T01660156  RH  099%=      5-min Rain = 0
KCXS 250420Z 16007KT 17/16 A2993 RMK A01 T01660156  RH  098%=      5-min Rain = 0
KCXS 250425Z 17008KT 17/16 A2993 RMK A01 T01650155  RH  098%=      5-min Rain = 0
KCXS 250430Z 16008KT 16/15 A2994 RMK A01 T01640154  RH  098%=      5-min Rain = 0
KCXS 250435Z 16008KT 16/15 A2994 RMK A01 T01640154  RH  098%=      5-min Rain = 0
KCXS 250440Z 16009KT 17/16 A2994 RMK A01 T01650155  RH  098%=      5-min Rain = 0
KCXS 250445Z 16009KT 17/16 A2994 RMK A01 T01650155  RH  099%=      5-min Rain = 0
KCXS 250450Z 16010KT 17/16 A2994 RMK A01 T01650156  RH  099%=      5-min Rain = 0
KCXS 250455Z 16010KT 17/16 A2994 RMK A01 T01650156  RH  099%=      5-min Rain = 0

Page generated in 0.0163 seconds.